sensor_id;sensor_type;location;lat;lon;timestamp;P1;durP1;ratioP1;P2;durP2;ratioP2
39066;SDS011;24821;51.988;6.020;2022-09-09T00:01:46;12.90;;;12.27;;
39066;SDS011;24821;51.988;6.020;2022-09-09T00:04:37;10.45;;;9.85;;
39066;SDS011;24821;51.988;6.020;2022-09-09T00:10:20;11.80;;;11.20;;
39066;SDS011;24821;51.988;6.020;2022-09-09T00:12:59;11.65;;;11.05;;
39066;SDS011;24821;51.988;6.020;2022-09-09T00:15:39;20.13;;;19.23;;
39066;SDS011;24821;51.988;6.020;2022-09-09T00:21:05;12.60;;;11.90;;
39066;SDS011;24821;51.988;6.020;2022-09-09T00:23:37;13.32;;;12.63;;
39066;SDS011;24821;51.988;6.020;2022-09-09T00:28:45;15.68;;;14.98;;
39066;SDS011;24821;51.988;6.020;2022-09-09T00:31:23;16.92;;;16.13;;
39066;SDS011;24821;51.988;6.020;2022-09-09T00:33:53;20.38;;;19.27;;
39066;SDS011;24821;51.988;6.020;2022-09-09T00:36:21;23.00;;;22.00;;
39066;SDS011;24821;51.988;6.020;2022-09-09T00:38:55;19.20;;;18.15;;
39066;SDS011;24821;51.988;6.020;2022-09-09T00:44:16;19.33;;;18.23;;
39066;SDS011;24821;51.988;6.020;2022-09-09T00:46:59;20.85;;;19.80;;
39066;SDS011;24821;51.988;6.020;2022-09-09T00:49:35;25.20;;;24.02;;
39066;SDS011;24821;51.988;6.020;2022-09-09T00:55:19;23.50;;;22.40;;
39066;SDS011;24821;51.988;6.020;2022-09-09T00:57:53;26.45;;;25.10;;
39066;SDS011;24821;51.988;6.020;2022-09-09T01:00:23;28.33;;;27.02;;
39066;SDS011;24821;51.988;6.020;2022-09-09T01:08:03;31.20;;;29.60;;
39066;SDS011;24821;51.988;6.020;2022-09-09T01:10:52;31.58;;;29.77;;
39066;SDS011;24821;51.988;6.020;2022-09-09T01:13:23;30.13;;;28.63;;
39066;SDS011;24821;51.988;6.020;2022-09-09T01:15:58;28.77;;;27.15;;
39066;SDS011;24821;51.988;6.020;2022-09-09T01:18:34;29.73;;;28.02;;
39066;SDS011;24821;51.988;6.020;2022-09-09T01:26:51;23.58;;;22.42;;
39066;SDS011;24821;51.988;6.020;2022-09-09T01:29:21;22.33;;;21.17;;
39066;SDS011;24821;51.988;6.020;2022-09-09T01:34:55;25.27;;;23.98;;
39066;SDS011;24821;51.988;6.020;2022-09-09T01:37:20;17.67;;;16.75;;
39066;SDS011;24821;51.988;6.020;2022-09-09T01:39:46;20.02;;;18.83;;
39066;SDS011;24821;51.988;6.020;2022-09-09T01:42:13;18.48;;;17.27;;
39066;SDS011;24821;51.988;6.020;2022-09-09T01:44:40;20.45;;;19.45;;
39066;SDS011;24821;51.988;6.020;2022-09-09T01:47:06;14.68;;;13.95;;
39066;SDS011;24821;51.988;6.020;2022-09-09T01:49:32;14.00;;;13.38;;
39066;SDS011;24821;51.988;6.020;2022-09-09T01:51:58;17.73;;;16.92;;
39066;SDS011;24821;51.988;6.020;2022-09-09T01:54:25;11.77;;;11.18;;
39066;SDS011;24821;51.988;6.020;2022-09-09T02:08:06;15.23;;;14.52;;
39066;SDS011;24821;51.988;6.020;2022-09-09T02:10:37;11.02;;;10.52;;
39066;SDS011;24821;51.988;6.020;2022-09-09T02:13:15;11.10;;;10.60;;
39066;SDS011;24821;51.988;6.020;2022-09-09T02:15:53;18.63;;;17.83;;
39066;SDS011;24821;51.988;6.020;2022-09-09T02:18:30;13.05;;;12.35;;
39066;SDS011;24821;51.988;6.020;2022-09-09T02:21:06;12.95;;;12.32;;
39066;SDS011;24821;51.988;6.020;2022-09-09T02:23:32;13.80;;;13.02;;
39066;SDS011;24821;51.988;6.020;2022-09-09T02:26:01;15.38;;;14.48;;
39066;SDS011;24821;51.988;6.020;2022-09-09T02:28:29;18.23;;;17.05;;
39066;SDS011;24821;51.988;6.020;2022-09-09T02:30:56;16.33;;;15.13;;
39066;SDS011;24821;51.988;6.020;2022-09-09T02:33:25;20.08;;;18.35;;
39066;SDS011;24821;51.988;6.020;2022-09-09T02:35:55;20.35;;;18.50;;
39066;SDS011;24821;51.988;6.020;2022-09-09T02:38:26;20.27;;;18.67;;
39066;SDS011;24821;51.988;6.020;2022-09-09T02:40:57;17.50;;;16.30;;
39066;SDS011;24821;51.988;6.020;2022-09-09T02:43:23;22.20;;;20.75;;
39066;SDS011;24821;51.988;6.020;2022-09-09T02:56:16;15.32;;;14.32;;
39066;SDS011;24821;51.988;6.020;2022-09-09T02:58:46;13.25;;;12.55;;
39066;SDS011;24821;51.988;6.020;2022-09-09T03:01:12;12.90;;;12.30;;
39066;SDS011;24821;51.988;6.020;2022-09-09T03:03:39;13.02;;;12.23;;
39066;SDS011;24821;51.988;6.020;2022-09-09T03:06:06;13.35;;;12.48;;
39066;SDS011;24821;51.988;6.020;2022-09-09T03:08:31;13.60;;;12.85;;
39066;SDS011;24821;51.988;6.020;2022-09-09T03:11:00;12.73;;;12.13;;
39066;SDS011;24821;51.988;6.020;2022-09-09T03:13:28;11.73;;;11.13;;
39066;SDS011;24821;51.988;6.020;2022-09-09T03:15:54;12.68;;;11.70;;
39066;SDS011;24821;51.988;6.020;2022-09-09T03:18:20;13.13;;;12.52;;
39066;SDS011;24821;51.988;6.020;2022-09-09T03:20:46;12.43;;;11.93;;
39066;SDS011;24821;51.988;6.020;2022-09-09T03:23:13;13.77;;;12.93;;
39066;SDS011;24821;51.988;6.020;2022-09-09T03:25:39;12.50;;;11.90;;
39066;SDS011;24821;51.988;6.020;2022-09-09T03:28:12;14.60;;;13.70;;
39066;SDS011;24821;51.988;6.020;2022-09-09T03:30:37;14.20;;;13.10;;
39066;SDS011;24821;51.988;6.020;2022-09-09T03:33:03;14.90;;;14.15;;
39066;SDS011;24821;51.988;6.020;2022-09-09T03:35:28;15.82;;;14.85;;
39066;SDS011;24821;51.988;6.020;2022-09-09T03:37:54;16.33;;;15.48;;
39066;SDS011;24821;51.988;6.020;2022-09-09T03:40:20;15.82;;;14.93;;
39066;SDS011;24821;51.988;6.020;2022-09-09T03:42:47;16.88;;;16.02;;
39066;SDS011;24821;51.988;6.020;2022-09-09T03:45:13;18.45;;;17.38;;
39066;SDS011;24821;51.988;6.020;2022-09-09T03:47:39;19.10;;;17.90;;
39066;SDS011;24821;51.988;6.020;2022-09-09T03:50:05;18.67;;;17.58;;
39066;SDS011;24821;51.988;6.020;2022-09-09T03:52:37;21.38;;;19.88;;
39066;SDS011;24821;51.988;6.020;2022-09-09T03:55:04;24.02;;;22.23;;
39066;SDS011;24821;51.988;6.020;2022-09-09T03:57:30;22.98;;;21.27;;
39066;SDS011;24821;51.988;6.020;2022-09-09T03:59:56;19.90;;;18.67;;
39066;SDS011;24821;51.988;6.020;2022-09-09T04:02:23;21.40;;;20.20;;
39066;SDS011;24821;51.988;6.020;2022-09-09T04:04:48;21.08;;;19.77;;
39066;SDS011;24821;51.988;6.020;2022-09-09T04:07:14;15.32;;;14.40;;
39066;SDS011;24821;51.988;6.020;2022-09-09T04:09:39;19.30;;;18.05;;
39066;SDS011;24821;51.988;6.020;2022-09-09T04:12:05;21.17;;;19.95;;
39066;SDS011;24821;51.988;6.020;2022-09-09T04:14:31;19.85;;;18.70;;
39066;SDS011;24821;51.988;6.020;2022-09-09T04:16:57;22.13;;;20.75;;
39066;SDS011;24821;51.988;6.020;2022-09-09T04:19:24;22.38;;;20.92;;
39066;SDS011;24821;51.988;6.020;2022-09-09T04:21:50;25.83;;;23.80;;
39066;SDS011;24821;51.988;6.020;2022-09-09T04:24:16;24.40;;;22.58;;
39066;SDS011;24821;51.988;6.020;2022-09-09T04:26:42;20.25;;;19.10;;
39066;SDS011;24821;51.988;6.020;2022-09-09T04:29:08;26.75;;;25.25;;
39066;SDS011;24821;51.988;6.020;2022-09-09T04:31:33;24.77;;;23.45;;
39066;SDS011;24821;51.988;6.020;2022-09-09T04:33:59;26.75;;;25.45;;
39066;SDS011;24821;51.988;6.020;2022-09-09T04:36:29;29.38;;;28.00;;
39066;SDS011;24821;51.988;6.020;2022-09-09T04:38:56;35.53;;;33.53;;
39066;SDS011;24821;51.988;6.020;2022-09-09T04:41:22;38.35;;;36.25;;
39066;SDS011;24821;51.988;6.020;2022-09-09T04:43:48;45.50;;;42.10;;
39066;SDS011;24821;51.988;6.020;2022-09-09T04:46:14;43.78;;;41.22;;
39066;SDS011;24821;51.988;6.020;2022-09-09T04:48:42;44.63;;;41.78;;
39066;SDS011;24821;51.988;6.020;2022-09-09T04:51:08;47.00;;;43.83;;
39066;SDS011;24821;51.988;6.020;2022-09-09T04:53:36;41.72;;;39.33;;
39066;SDS011;24821;51.988;6.020;2022-09-09T04:56:10;40.15;;;37.88;;
39066;SDS011;24821;51.988;6.020;2022-09-09T04:58:42;42.78;;;40.58;;
39066;SDS011;24821;51.988;6.020;2022-09-09T05:01:17;35.35;;;33.28;;
39066;SDS011;24821;51.988;6.020;2022-09-09T05:03:45;45.92;;;43.42;;
39066;SDS011;24821;51.988;6.020;2022-09-09T05:06:12;48.22;;;45.85;;
39066;SDS011;24821;51.988;6.020;2022-09-09T05:08:39;40.95;;;38.95;;
39066;SDS011;24821;51.988;6.020;2022-09-09T05:11:22;50.78;;;48.30;;
39066;SDS011;24821;51.988;6.020;2022-09-09T05:13:49;44.47;;;42.27;;
39066;SDS011;24821;51.988;6.020;2022-09-09T05:16:15;44.95;;;42.75;;
39066;SDS011;24821;51.988;6.020;2022-09-09T05:18:42;50.88;;;47.85;;
39066;SDS011;24821;51.988;6.020;2022-09-09T05:21:08;43.10;;;40.38;;
39066;SDS011;24821;51.988;6.020;2022-09-09T05:23:35;50.28;;;47.47;;
39066;SDS011;24821;51.988;6.020;2022-09-09T05:26:01;50.08;;;46.80;;
39066;SDS011;24821;51.988;6.020;2022-09-09T05:28:27;48.00;;;45.15;;
39066;SDS011;24821;51.988;6.020;2022-09-09T05:30:57;40.88;;;38.60;;
39066;SDS011;24821;51.988;6.020;2022-09-09T05:33:33;46.78;;;44.13;;
39066;SDS011;24821;51.988;6.020;2022-09-09T05:36:00;47.65;;;44.70;;
39066;SDS011;24821;51.988;6.020;2022-09-09T05:38:30;48.85;;;45.70;;
39066;SDS011;24821;51.988;6.020;2022-09-09T05:40:57;46.08;;;43.50;;
39066;SDS011;24821;51.988;6.020;2022-09-09T05:43:24;44.33;;;41.25;;
39066;SDS011;24821;51.988;6.020;2022-09-09T05:48:29;39.75;;;37.53;;
39066;SDS011;24821;51.988;6.020;2022-09-09T05:50:56;37.65;;;35.75;;
39066;SDS011;24821;51.988;6.020;2022-09-09T05:53:23;37.35;;;35.05;;
39066;SDS011;24821;51.988;6.020;2022-09-09T05:55:48;28.02;;;26.52;;
39066;SDS011;24821;51.988;6.020;2022-09-09T05:58:15;26.75;;;25.23;;
39066;SDS011;24821;51.988;6.020;2022-09-09T06:00:42;26.65;;;25.25;;
39066;SDS011;24821;51.988;6.020;2022-09-09T06:03:10;26.75;;;25.15;;
39066;SDS011;24821;51.988;6.020;2022-09-09T06:05:36;26.58;;;25.00;;
39066;SDS011;24821;51.988;6.020;2022-09-09T06:08:02;30.55;;;28.55;;
39066;SDS011;24821;51.988;6.020;2022-09-09T06:10:28;25.27;;;23.77;;
39066;SDS011;24821;51.988;6.020;2022-09-09T06:12:53;29.52;;;28.02;;
39066;SDS011;24821;51.988;6.020;2022-09-09T06:15:20;34.92;;;32.63;;
39066;SDS011;24821;51.988;6.020;2022-09-09T06:17:45;27.15;;;25.05;;
39066;SDS011;24821;51.988;6.020;2022-09-09T06:20:12;34.13;;;31.38;;
39066;SDS011;24821;51.988;6.020;2022-09-09T06:22:39;33.25;;;30.63;;
39066;SDS011;24821;51.988;6.020;2022-09-09T06:25:06;41.13;;;38.25;;
39066;SDS011;24821;51.988;6.020;2022-09-09T06:27:33;33.50;;;31.17;;
39066;SDS011;24821;51.988;6.020;2022-09-09T06:29:58;25.90;;;24.33;;
39066;SDS011;24821;51.988;6.020;2022-09-09T06:32:24;24.75;;;22.77;;
39066;SDS011;24821;51.988;6.020;2022-09-09T06:34:50;24.25;;;22.35;;
39066;SDS011;24821;51.988;6.020;2022-09-09T06:37:16;31.50;;;29.40;;
39066;SDS011;24821;51.988;6.020;2022-09-09T06:39:41;23.02;;;21.15;;
39066;SDS011;24821;51.988;6.020;2022-09-09T06:42:07;22.88;;;20.70;;
39066;SDS011;24821;51.988;6.020;2022-09-09T06:44:34;16.23;;;15.02;;
39066;SDS011;24821;51.988;6.020;2022-09-09T06:46:59;19.27;;;17.77;;
39066;SDS011;24821;51.988;6.020;2022-09-09T06:49:25;15.68;;;14.25;;
39066;SDS011;24821;51.988;6.020;2022-09-09T06:51:51;20.23;;;18.80;;
39066;SDS011;24821;51.988;6.020;2022-09-09T06:54:17;13.73;;;12.55;;
39066;SDS011;24821;51.988;6.020;2022-09-09T06:56:43;15.48;;;14.18;;
39066;SDS011;24821;51.988;6.020;2022-09-09T06:59:10;15.15;;;14.05;;
39066;SDS011;24821;51.988;6.020;2022-09-09T07:01:41;18.77;;;17.58;;
39066;SDS011;24821;51.988;6.020;2022-09-09T07:04:11;15.75;;;14.48;;
39066;SDS011;24821;51.988;6.020;2022-09-09T07:06:39;15.82;;;14.50;;
39066;SDS011;24821;51.988;6.020;2022-09-09T07:09:08;15.88;;;14.63;;
39066;SDS011;24821;51.988;6.020;2022-09-09T07:11:45;15.07;;;14.05;;
39066;SDS011;24821;51.988;6.020;2022-09-09T07:14:13;18.25;;;16.85;;
39066;SDS011;24821;51.988;6.020;2022-09-09T07:16:40;15.27;;;14.13;;
39066;SDS011;24821;51.988;6.020;2022-09-09T07:19:10;19.77;;;18.35;;
39066;SDS011;24821;51.988;6.020;2022-09-09T07:21:36;14.68;;;13.77;;
39066;SDS011;24821;51.988;6.020;2022-09-09T07:24:02;14.43;;;13.23;;
39066;SDS011;24821;51.988;6.020;2022-09-09T07:26:30;15.82;;;14.43;;
39066;SDS011;24821;51.988;6.020;2022-09-09T07:28:56;20.17;;;19.00;;
39066;SDS011;24821;51.988;6.020;2022-09-09T07:33:52;20.88;;;19.50;;
39066;SDS011;24821;51.988;6.020;2022-09-09T07:36:18;21.52;;;20.33;;
39066;SDS011;24821;51.988;6.020;2022-09-09T07:38:51;23.35;;;22.05;;
39066;SDS011;24821;51.988;6.020;2022-09-09T07:41:20;19.75;;;18.52;;
39066;SDS011;24821;51.988;6.020;2022-09-09T07:43:50;18.90;;;17.60;;
39066;SDS011;24821;51.988;6.020;2022-09-09T07:46:18;15.18;;;13.98;;
39066;SDS011;24821;51.988;6.020;2022-09-09T07:48:46;14.65;;;13.65;;
39066;SDS011;24821;51.988;6.020;2022-09-09T07:51:16;15.93;;;14.93;;
39066;SDS011;24821;51.988;6.020;2022-09-09T07:53:44;16.25;;;15.13;;
39066;SDS011;24821;51.988;6.020;2022-09-09T07:56:11;13.20;;;12.13;;
39066;SDS011;24821;51.988;6.020;2022-09-09T07:58:39;15.70;;;14.50;;
39066;SDS011;24821;51.988;6.020;2022-09-09T08:01:06;19.73;;;18.52;;
39066;SDS011;24821;51.988;6.020;2022-09-09T08:03:37;20.13;;;18.60;;
39066;SDS011;24821;51.988;6.020;2022-09-09T08:06:04;21.42;;;20.00;;
39066;SDS011;24821;51.988;6.020;2022-09-09T08:08:32;21.77;;;20.42;;
39066;SDS011;24821;51.988;6.020;2022-09-09T08:11:02;25.80;;;24.27;;
39066;SDS011;24821;51.988;6.020;2022-09-09T08:13:35;22.98;;;21.48;;
39066;SDS011;24821;51.988;6.020;2022-09-09T08:16:11;21.08;;;19.42;;
39066;SDS011;24821;51.988;6.020;2022-09-09T08:18:39;20.83;;;19.52;;
39066;SDS011;24821;51.988;6.020;2022-09-09T08:21:09;17.27;;;16.30;;
39066;SDS011;24821;51.988;6.020;2022-09-09T08:23:43;18.92;;;17.92;;
39066;SDS011;24821;51.988;6.020;2022-09-09T08:26:13;17.08;;;15.77;;
39066;SDS011;24821;51.988;6.020;2022-09-09T08:29:03;19.65;;;18.35;;
39066;SDS011;24821;51.988;6.020;2022-09-09T08:31:35;16.30;;;14.98;;
39066;SDS011;24821;51.988;6.020;2022-09-09T08:36:37;16.45;;;15.23;;
39066;SDS011;24821;51.988;6.020;2022-09-09T08:39:09;18.55;;;17.45;;
39066;SDS011;24821;51.988;6.020;2022-09-09T08:44:47;16.60;;;15.43;;
39066;SDS011;24821;51.988;6.020;2022-09-09T08:53:05;20.58;;;19.27;;
39066;SDS011;24821;51.988;6.020;2022-09-09T08:55:46;17.50;;;16.30;;
39066;SDS011;24821;51.988;6.020;2022-09-09T08:58:20;16.40;;;15.15;;
39066;SDS011;24821;51.988;6.020;2022-09-09T09:12:18;15.48;;;14.48;;
39066;SDS011;24821;51.988;6.020;2022-09-09T09:14:48;17.88;;;16.58;;
39066;SDS011;24821;51.988;6.020;2022-09-09T09:17:15;14.95;;;13.68;;
39066;SDS011;24821;51.988;6.020;2022-09-09T09:19:45;16.02;;;15.05;;
39066;SDS011;24821;51.988;6.020;2022-09-09T09:24:51;18.17;;;16.75;;
39066;SDS011;24821;51.988;6.020;2022-09-09T09:27:25;17.98;;;16.85;;
39066;SDS011;24821;51.988;6.020;2022-09-09T09:29:58;23.77;;;22.67;;
39066;SDS011;24821;51.988;6.020;2022-09-09T09:32:25;17.23;;;16.23;;
39066;SDS011;24821;51.988;6.020;2022-09-09T09:34:55;17.83;;;16.92;;
39066;SDS011;24821;51.988;6.020;2022-09-09T09:37:26;17.98;;;16.70;;
39066;SDS011;24821;51.988;6.020;2022-09-09T09:39:54;18.38;;;17.48;;
39066;SDS011;24821;51.988;6.020;2022-09-09T09:42:20;15.45;;;14.50;;
39066;SDS011;24821;51.988;6.020;2022-09-09T09:44:45;10.82;;;9.80;;
39066;SDS011;24821;51.988;6.020;2022-09-09T09:47:12;10.07;;;9.38;;
39066;SDS011;24821;51.988;6.020;2022-09-09T09:49:54;11.10;;;10.10;;
39066;SDS011;24821;51.988;6.020;2022-09-09T09:52:24;12.10;;;11.02;;
39066;SDS011;24821;51.988;6.020;2022-09-09T09:54:52;11.63;;;10.82;;
39066;SDS011;24821;51.988;6.020;2022-09-09T09:57:18;12.32;;;11.55;;
39066;SDS011;24821;51.988;6.020;2022-09-09T10:00:00;13.13;;;12.30;;
39066;SDS011;24821;51.988;6.020;2022-09-09T10:02:38;11.27;;;10.57;;
39066;SDS011;24821;51.988;6.020;2022-09-09T10:05:18;11.25;;;10.25;;
39066;SDS011;24821;51.988;6.020;2022-09-09T10:07:45;11.52;;;10.65;;
39066;SDS011;24821;51.988;6.020;2022-09-09T10:10:13;12.20;;;11.40;;
39066;SDS011;24821;51.988;6.020;2022-09-09T10:15:33;11.32;;;10.38;;
39066;SDS011;24821;51.988;6.020;2022-09-09T10:57:28;8.60;;;7.90;;
39066;SDS011;24821;51.988;6.020;2022-09-09T11:00:03;16.05;;;14.82;;
39066;SDS011;24821;51.988;6.020;2022-09-09T11:02:33;10.00;;;9.27;;
39066;SDS011;24821;51.988;6.020;2022-09-09T11:05:12;9.57;;;9.00;;
39066;SDS011;24821;51.988;6.020;2022-09-09T11:07:52;11.13;;;10.23;;
39066;SDS011;24821;51.988;6.020;2022-09-09T11:10:24;9.38;;;8.73;;
39066;SDS011;24821;51.988;6.020;2022-09-09T11:13:17;10.20;;;9.13;;
39066;SDS011;24821;51.988;6.020;2022-09-09T11:15:50;9.38;;;8.65;;
39066;SDS011;24821;51.988;6.020;2022-09-09T11:18:20;12.77;;;12.02;;
39066;SDS011;24821;51.988;6.020;2022-09-09T11:20:48;11.02;;;10.13;;
39066;SDS011;24821;51.988;6.020;2022-09-09T11:23:25;10.52;;;9.70;;
39066;SDS011;24821;51.988;6.020;2022-09-09T11:25:58;16.42;;;15.32;;
39066;SDS011;24821;51.988;6.020;2022-09-09T11:39:58;10.18;;;9.48;;
39066;SDS011;24821;51.988;6.020;2022-09-09T11:42:47;8.70;;;8.07;;
39066;SDS011;24821;51.988;6.020;2022-09-09T11:45:19;15.40;;;14.50;;
39066;SDS011;24821;51.988;6.020;2022-09-09T11:47:56;13.63;;;12.55;;
39066;SDS011;24821;51.988;6.020;2022-09-09T11:52:49;14.82;;;13.90;;
39066;SDS011;24821;51.988;6.020;2022-09-09T11:55:25;12.98;;;12.02;;
39066;SDS011;24821;51.988;6.020;2022-09-09T11:58:02;11.45;;;10.85;;
39066;SDS011;24821;51.988;6.020;2022-09-09T12:00:41;12.93;;;12.13;;
39066;SDS011;24821;51.988;6.020;2022-09-09T12:06:18;17.00;;;15.90;;
39066;SDS011;24821;51.988;6.020;2022-09-09T12:09:06;16.38;;;15.27;;
39066;SDS011;24821;51.988;6.020;2022-09-09T12:11:39;13.70;;;12.90;;
39066;SDS011;24821;51.988;6.020;2022-09-09T12:14:04;14.30;;;13.30;;
39066;SDS011;24821;51.988;6.020;2022-09-09T12:16:43;16.33;;;15.13;;
39066;SDS011;24821;51.988;6.020;2022-09-09T12:30:35;13.73;;;12.75;;
39066;SDS011;24821;51.988;6.020;2022-09-09T12:33:20;15.15;;;14.25;;
39066;SDS011;24821;51.988;6.020;2022-09-09T12:35:49;22.08;;;20.58;;
39066;SDS011;24821;51.988;6.020;2022-09-09T12:38:25;16.15;;;15.15;;
39066;SDS011;24821;51.988;6.020;2022-09-09T12:40:57;17.65;;;16.65;;
39066;SDS011;24821;51.988;6.020;2022-09-09T12:43:24;13.55;;;12.75;;
39066;SDS011;24821;51.988;6.020;2022-09-09T12:45:51;16.88;;;15.88;;
39066;SDS011;24821;51.988;6.020;2022-09-09T12:48:24;18.58;;;17.45;;
39066;SDS011;24821;51.988;6.020;2022-09-09T12:50:59;15.82;;;14.82;;
39066;SDS011;24821;51.988;6.020;2022-09-09T12:53:30;15.52;;;14.60;;
39066;SDS011;24821;51.988;6.020;2022-09-09T12:56:00;12.65;;;11.77;;
39066;SDS011;24821;51.988;6.020;2022-09-09T12:58:30;18.17;;;17.30;;
39066;SDS011;24821;51.988;6.020;2022-09-09T13:00:59;17.45;;;16.58;;
39066;SDS011;24821;51.988;6.020;2022-09-09T13:03:30;18.17;;;17.35;;
39066;SDS011;24821;51.988;6.020;2022-09-09T13:05:58;17.40;;;16.23;;
39066;SDS011;24821;51.988;6.020;2022-09-09T13:08:36;19.70;;;18.52;;
39066;SDS011;24821;51.988;6.020;2022-09-09T13:11:03;13.18;;;12.40;;
39066;SDS011;24821;51.988;6.020;2022-09-09T13:13:35;16.58;;;15.60;;
39066;SDS011;24821;51.988;6.020;2022-09-09T13:16:03;10.23;;;9.70;;
39066;SDS011;24821;51.988;6.020;2022-09-09T13:18:34;7.82;;;7.32;;
39066;SDS011;24821;51.988;6.020;2022-09-09T13:21:03;8.85;;;8.23;;
39066;SDS011;24821;51.988;6.020;2022-09-09T13:23:30;10.20;;;9.57;;
39066;SDS011;24821;51.988;6.020;2022-09-09T13:26:02;14.95;;;14.25;;
39066;SDS011;24821;51.988;6.020;2022-09-09T13:28:31;8.43;;;8.07;;
39066;SDS011;24821;51.988;6.020;2022-09-09T13:31:01;11.02;;;10.32;;
39066;SDS011;24821;51.988;6.020;2022-09-09T13:33:44;17.25;;;16.45;;
39066;SDS011;24821;51.988;6.020;2022-09-09T13:36:10;10.02;;;9.43;;
39066;SDS011;24821;51.988;6.020;2022-09-09T13:38:38;8.88;;;8.20;;
39066;SDS011;24821;51.988;6.020;2022-09-09T13:41:19;9.02;;;8.45;;
39066;SDS011;24821;51.988;6.020;2022-09-09T13:43:48;9.65;;;9.07;;
39066;SDS011;24821;51.988;6.020;2022-09-09T13:46:25;10.50;;;9.90;;
39066;SDS011;24821;51.988;6.020;2022-09-09T13:49:02;11.27;;;10.55;;
39066;SDS011;24821;51.988;6.020;2022-09-09T13:54:08;13.10;;;12.30;;
39066;SDS011;24821;51.988;6.020;2022-09-09T13:56:35;10.73;;;10.05;;
39066;SDS011;24821;51.988;6.020;2022-09-09T13:59:02;18.73;;;17.58;;
39066;SDS011;24821;51.988;6.020;2022-09-09T14:01:29;9.75;;;9.00;;
39066;SDS011;24821;51.988;6.020;2022-09-09T14:03:56;10.60;;;9.95;;
39066;SDS011;24821;51.988;6.020;2022-09-09T14:06:23;9.48;;;8.82;;
39066;SDS011;24821;51.988;6.020;2022-09-09T14:08:49;11.38;;;10.63;;
39066;SDS011;24821;51.988;6.020;2022-09-09T14:11:15;10.32;;;9.73;;
39066;SDS011;24821;51.988;6.020;2022-09-09T14:13:41;13.57;;;12.88;;
39066;SDS011;24821;51.988;6.020;2022-09-09T14:16:07;11.93;;;11.30;;
39066;SDS011;24821;51.988;6.020;2022-09-09T14:18:32;10.57;;;10.05;;
39066;SDS011;24821;51.988;6.020;2022-09-09T14:20:58;12.00;;;11.27;;
39066;SDS011;24821;51.988;6.020;2022-09-09T14:23:24;9.40;;;8.90;;
39066;SDS011;24821;51.988;6.020;2022-09-09T14:25:50;11.45;;;10.75;;
39066;SDS011;24821;51.988;6.020;2022-09-09T14:28:17;12.35;;;11.55;;
39066;SDS011;24821;51.988;6.020;2022-09-09T14:30:43;11.25;;;10.55;;
39066;SDS011;24821;51.988;6.020;2022-09-09T14:33:10;11.30;;;10.60;;
39066;SDS011;24821;51.988;6.020;2022-09-09T14:35:37;11.23;;;10.38;;
39066;SDS011;24821;51.988;6.020;2022-09-09T14:38:03;11.30;;;10.52;;
39066;SDS011;24821;51.988;6.020;2022-09-09T14:40:29;11.52;;;10.82;;
39066;SDS011;24821;51.988;6.020;2022-09-09T14:42:55;11.25;;;9.05;;
39066;SDS011;24821;51.988;6.020;2022-09-09T14:45:22;13.73;;;12.90;;
39066;SDS011;24821;51.988;6.020;2022-09-09T14:47:49;9.20;;;8.60;;
39066;SDS011;24821;51.988;6.020;2022-09-09T14:50:15;10.43;;;9.70;;
39066;SDS011;24821;51.988;6.020;2022-09-09T14:52:41;9.40;;;8.68;;
39066;SDS011;24821;51.988;6.020;2022-09-09T14:55:07;12.43;;;11.52;;
39066;SDS011;24821;51.988;6.020;2022-09-09T14:57:33;10.20;;;9.50;;
39066;SDS011;24821;51.988;6.020;2022-09-09T14:59:59;10.23;;;9.55;;
39066;SDS011;24821;51.988;6.020;2022-09-09T15:02:25;11.57;;;10.88;;
39066;SDS011;24821;51.988;6.020;2022-09-09T15:04:50;10.45;;;9.80;;
39066;SDS011;24821;51.988;6.020;2022-09-09T15:07:17;9.80;;;9.30;;
39066;SDS011;24821;51.988;6.020;2022-09-09T15:09:44;11.18;;;10.48;;
39066;SDS011;24821;51.988;6.020;2022-09-09T15:12:11;9.70;;;9.23;;
39066;SDS011;24821;51.988;6.020;2022-09-09T15:21:57;9.35;;;8.75;;
39066;SDS011;24821;51.988;6.020;2022-09-09T15:24:24;9.32;;;8.82;;
39066;SDS011;24821;51.988;6.020;2022-09-09T15:26:51;9.23;;;8.73;;
39066;SDS011;24821;51.988;6.020;2022-09-09T15:29:16;10.63;;;10.02;;
39066;SDS011;24821;51.988;6.020;2022-09-09T15:31:43;8.80;;;8.30;;
39066;SDS011;24821;51.988;6.020;2022-09-09T15:34:08;10.30;;;9.63;;
39066;SDS011;24821;51.988;6.020;2022-09-09T15:36:35;7.88;;;7.38;;
39066;SDS011;24821;51.988;6.020;2022-09-09T15:39:03;6.85;;;6.47;;
39066;SDS011;24821;51.988;6.020;2022-09-09T15:41:31;11.30;;;10.55;;
39066;SDS011;24821;51.988;6.020;2022-09-09T15:43:57;10.23;;;9.63;;
39066;SDS011;24821;51.988;6.020;2022-09-09T15:46:28;10.88;;;10.00;;
39066;SDS011;24821;51.988;6.020;2022-09-09T15:49:08;10.18;;;9.48;;
39066;SDS011;24821;51.988;6.020;2022-09-09T15:51:39;12.50;;;11.90;;
39066;SDS011;24821;51.988;6.020;2022-09-09T15:54:07;13.48;;;12.48;;
39066;SDS011;24821;51.988;6.020;2022-09-09T15:56:33;12.13;;;11.52;;
39066;SDS011;24821;51.988;6.020;2022-09-09T15:58:59;10.20;;;9.63;;
39066;SDS011;24821;51.988;6.020;2022-09-09T16:01:27;10.07;;;9.57;;
39066;SDS011;24821;51.988;6.020;2022-09-09T16:03:55;11.13;;;10.43;;
39066;SDS011;24821;51.988;6.020;2022-09-09T16:06:22;12.02;;;11.50;;
39066;SDS011;24821;51.988;6.020;2022-09-09T16:08:49;12.85;;;12.05;;
39066;SDS011;24821;51.988;6.020;2022-09-09T16:11:17;11.25;;;10.52;;
39066;SDS011;24821;51.988;6.020;2022-09-09T16:13:48;10.77;;;10.07;;
39066;SDS011;24821;51.988;6.020;2022-09-09T16:16:16;12.50;;;11.77;;
39066;SDS011;24821;51.988;6.020;2022-09-09T16:18:45;10.32;;;9.73;;
39066;SDS011;24821;51.988;6.020;2022-09-09T16:21:16;10.85;;;10.25;;
39066;SDS011;24821;51.988;6.020;2022-09-09T16:23:47;9.68;;;9.27;;
39066;SDS011;24821;51.988;6.020;2022-09-09T16:26:15;10.25;;;9.85;;
39066;SDS011;24821;51.988;6.020;2022-09-09T16:28:42;12.75;;;12.15;;
39066;SDS011;24821;51.988;6.020;2022-09-09T16:31:09;11.00;;;10.43;;
39066;SDS011;24821;51.988;6.020;2022-09-09T16:33:38;8.90;;;8.50;;
39066;SDS011;24821;51.988;6.020;2022-09-09T16:36:05;8.68;;;8.02;;
39066;SDS011;24821;51.988;6.020;2022-09-09T16:38:35;8.00;;;7.60;;
39066;SDS011;24821;51.988;6.020;2022-09-09T16:41:02;10.13;;;9.52;;
39066;SDS011;24821;51.988;6.020;2022-09-09T16:43:30;7.82;;;7.43;;
39066;SDS011;24821;51.988;6.020;2022-09-09T16:45:56;7.82;;;7.43;;
39066;SDS011;24821;51.988;6.020;2022-09-09T16:48:22;6.95;;;6.40;;
39066;SDS011;24821;51.988;6.020;2022-09-09T16:50:48;10.75;;;10.25;;
39066;SDS011;24821;51.988;6.020;2022-09-09T16:53:14;7.72;;;7.28;;
39066;SDS011;24821;51.988;6.020;2022-09-09T16:55:40;10.75;;;10.35;;
39066;SDS011;24821;51.988;6.020;2022-09-09T16:58:07;10.70;;;10.13;;
39066;SDS011;24821;51.988;6.020;2022-09-09T17:00:35;14.13;;;13.35;;
39066;SDS011;24821;51.988;6.020;2022-09-09T17:03:01;12.25;;;11.63;;
39066;SDS011;24821;51.988;6.020;2022-09-09T17:05:27;13.52;;;12.70;;
39066;SDS011;24821;51.988;6.020;2022-09-09T17:07:53;10.15;;;9.75;;
39066;SDS011;24821;51.988;6.020;2022-09-09T17:10:24;8.13;;;7.82;;
39066;SDS011;24821;51.988;6.020;2022-09-09T17:12:50;8.52;;;7.93;;
39066;SDS011;24821;51.988;6.020;2022-09-09T17:15:16;11.27;;;10.77;;
39066;SDS011;24821;51.988;6.020;2022-09-09T17:17:43;8.57;;;8.18;;
39066;SDS011;24821;51.988;6.020;2022-09-09T17:20:09;10.27;;;9.75;;